SUD010 UWGG-UTDD
Flight info
| Callsign | SUD010 |
|---|---|
| Flight time | 3h 34m |
| Altitude | 35000 |
| Route | T778 DCT MOF M161 ODIVA L162 UMZAN |
| Aircraft | A320/M-SDFGHILORVWY/S |
Departure
| Time | 2026-04-22 07:01 |
|---|---|
| Airport | Nizhny Novgorod / Strigino International Airport (UWGG) |
Arrival
| Time | 2026-04-22 10:35 |
|---|---|
| Airport | Dushanbe International Airport (UTDD) |
| Time | Latitude | Longitude | Altitude | Speed | Heading |
|---|---|---|---|---|---|
| 2026-04-22 06:41 | 56.22099 | 43.78808 | 260 ft | 0 kts | 103° |
| 2026-04-22 06:48 | 56.22100 | 43.78801 | 260 ft | 3 kts | 103° |
| 2026-04-22 06:49 | 56.22104 | 43.78756 | 260 ft | 4 kts | 93° |
| 2026-04-22 06:49 | 56.22103 | 43.78708 | 260 ft | 3 kts | 81° |
| 2026-04-22 06:49 | 56.22102 | 43.78703 | 260 ft | 0 kts | 81° |
| 2026-04-22 06:51 | 56.22103 | 43.78705 | 260 ft | 1 kts | 81° |
| 2026-04-22 06:51 | 56.22108 | 43.78715 | 260 ft | 1 kts | 35° |
| 2026-04-22 06:51 | 56.22113 | 43.78713 | 260 ft | 2 kts | 8° |
| 2026-04-22 06:51 | 56.22136 | 43.78720 | 260 ft | 5 kts | 9° |
| 2026-04-22 06:52 | 56.22191 | 43.78734 | 260 ft | 11 kts | 9° |
| 2026-04-22 06:52 | 56.22281 | 43.78766 | 260 ft | 16 kts | 12° |
| 2026-04-22 06:52 | 56.22402 | 43.78813 | 260 ft | 20 kts | 12° |
| 2026-04-22 06:52 | 56.22541 | 43.78898 | 260 ft | 23 kts | 12° |
| 2026-04-22 06:53 | 56.22707 | 43.78957 | 260 ft | 26 kts | 13° |
| 2026-04-22 06:53 | 56.22842 | 43.79003 | 260 ft | 19 kts | 12° |
| 2026-04-22 06:53 | 56.22988 | 43.79053 | 260 ft | 23 kts | 9° |
| 2026-04-22 06:53 | 56.23157 | 43.79116 | 260 ft | 26 kts | 13° |
| 2026-04-22 06:54 | 56.23325 | 43.79176 | 260 ft | 23 kts | 11° |
| 2026-04-22 06:54 | 56.23493 | 43.79236 | 261 ft | 26 kts | 9° |
| 2026-04-22 06:54 | 56.23682 | 43.79252 | 261 ft | 29 kts | 1° |
| 2026-04-22 06:54 | 56.23864 | 43.79265 | 261 ft | 26 kts | 5° |
| 2026-04-22 06:55 | 56.24029 | 43.79271 | 261 ft | 21 kts | 343° |
| 2026-04-22 06:55 | 56.24103 | 43.79141 | 261 ft | 8 kts | 302° |
| 2026-04-22 06:55 | 56.24107 | 43.79121 | 261 ft | 0 kts | 290° |
| 2026-04-22 06:57 | 56.24118 | 43.79068 | 262 ft | 8 kts | 290° |
| 2026-04-22 06:58 | 56.24094 | 43.78993 | 263 ft | 9 kts | 188° |
| 2026-04-22 06:58 | 56.24038 | 43.78968 | 262 ft | 0 kts | 188° |
| 2026-04-22 07:00 | 56.23953 | 43.78946 | 262 ft | 38 kts | 188° |
| 2026-04-22 07:00 | 56.23457 | 43.78758 | 260 ft | 105 kts | 191° |
| 2026-04-22 07:00 | 56.22563 | 43.78429 | 258 ft | 156 kts | 191° |
| 2026-04-22 07:00 | 56.21426 | 43.78004 | 620 ft | 168 kts | 192° |
| 2026-04-22 07:01 | 56.20650 | 43.77702 | 1015 ft | 171 kts | 193° |
| 2026-04-22 07:01 | 56.19467 | 43.77227 | 1644 ft | 176 kts | 195° |
| 2026-04-22 07:01 | 56.18265 | 43.76957 | 2145 ft | 180 kts | 174° |
| 2026-04-22 07:01 | 56.17064 | 43.77782 | 2439 ft | 195 kts | 142° |
| 2026-04-22 07:02 | 56.16152 | 43.79652 | 2777 ft | 205 kts | 124° |
| 2026-04-22 07:02 | 56.15322 | 43.81832 | 3089 ft | 221 kts | 122° |
| 2026-04-22 07:02 | 56.14441 | 43.84266 | 3392 ft | 244 kts | 121° |
| 2026-04-22 07:02 | 56.13413 | 43.86853 | 3751 ft | 264 kts | 129° |
| 2026-04-22 07:03 | 56.12164 | 43.89282 | 4476 ft | 269 kts | 134° |
| 2026-04-22 07:03 | 56.10811 | 43.91682 | 4900 ft | 273 kts | 135° |
| 2026-04-22 07:03 | 56.09445 | 43.94045 | 5522 ft | 274 kts | 135° |
| 2026-04-22 07:03 | 56.08065 | 43.96441 | 6337 ft | 277 kts | 134° |
| 2026-04-22 07:04 | 56.06686 | 43.98868 | 7049 ft | 280 kts | 134° |
| 2026-04-22 07:04 | 56.05292 | 44.01351 | 7760 ft | 284 kts | 134° |
| 2026-04-22 07:04 | 56.03890 | 44.03868 | 8464 ft | 288 kts | 134° |
| 2026-04-22 07:04 | 56.02474 | 44.06421 | 9160 ft | 291 kts | 134° |
| 2026-04-22 07:05 | 56.01043 | 44.09006 | 9834 ft | 295 kts | 133° |
| 2026-04-22 07:05 | 55.99558 | 44.11695 | 10080 ft | 315 kts | 133° |
| 2026-04-22 07:05 | 55.97966 | 44.14574 | 10238 ft | 337 kts | 134° |
| 2026-04-22 07:05 | 55.96269 | 44.17634 | 10404 ft | 356 kts | 134° |
| 2026-04-22 07:06 | 55.94499 | 44.20824 | 10902 ft | 364 kts | 134° |
| 2026-04-22 07:06 | 55.92711 | 44.24042 | 11497 ft | 368 kts | 134° |
| 2026-04-22 07:06 | 55.90901 | 44.27291 | 12129 ft | 371 kts | 134° |
| 2026-04-22 07:06 | 55.89075 | 44.30555 | 12764 ft | 374 kts | 134° |
| 2026-04-22 07:07 | 55.87231 | 44.33846 | 13382 ft | 377 kts | 134° |
| 2026-04-22 07:07 | 55.85370 | 44.37164 | 13947 ft | 380 kts | 134° |
| 2026-04-22 07:07 | 55.83498 | 44.40503 | 14478 ft | 383 kts | 134° |
| 2026-04-22 07:07 | 55.81610 | 44.43870 | 15008 ft | 386 kts | 134° |
| 2026-04-22 07:08 | 55.79707 | 44.47262 | 15528 ft | 389 kts | 134° |
| 2026-04-22 07:08 | 55.77789 | 44.50677 | 16049 ft | 392 kts | 135° |
| 2026-04-22 07:08 | 55.75854 | 44.54115 | 16567 ft | 395 kts | 135° |
| 2026-04-22 07:08 | 55.73902 | 44.57575 | 17085 ft | 398 kts | 135° |
| 2026-04-22 07:09 | 55.71930 | 44.61062 | 17614 ft | 401 kts | 135° |
| 2026-04-22 07:09 | 55.69944 | 44.64569 | 18111 ft | 405 kts | 135° |
| 2026-04-22 07:09 | 55.67946 | 44.68096 | 18571 ft | 407 kts | 135° |
| 2026-04-22 07:09 | 55.65929 | 44.71644 | 19023 ft | 410 kts | 135° |
| 2026-04-22 07:10 | 55.63893 | 44.75213 | 19454 ft | 413 kts | 135° |
| 2026-04-22 07:10 | 55.61850 | 44.78792 | 19884 ft | 415 kts | 136° |
| 2026-04-22 07:10 | 55.59785 | 44.82397 | 20322 ft | 418 kts | 136° |
| 2026-04-22 07:10 | 55.57714 | 44.86011 | 20747 ft | 420 kts | 136° |
| 2026-04-22 07:11 | 55.55621 | 44.89629 | 21155 ft | 422 kts | 137° |
| 2026-04-22 07:11 | 55.53486 | 44.93200 | 21557 ft | 424 kts | 138° |
| 2026-04-22 07:11 | 55.51319 | 44.96746 | 21959 ft | 426 kts | 138° |
| 2026-04-22 07:11 | 55.49127 | 45.00288 | 22340 ft | 428 kts | 139° |
| 2026-04-22 07:12 | 55.46920 | 45.03838 | 22698 ft | 431 kts | 139° |
| 2026-04-22 07:12 | 55.44704 | 45.07404 | 23044 ft | 433 kts | 139° |
| 2026-04-22 07:12 | 55.42479 | 45.10992 | 23375 ft | 435 kts | 139° |
| 2026-04-22 07:12 | 55.40242 | 45.14611 | 23666 ft | 438 kts | 139° |
| 2026-04-22 07:13 | 55.38000 | 45.18251 | 23961 ft | 439 kts | 139° |
| 2026-04-22 07:13 | 55.35752 | 45.21902 | 24236 ft | 441 kts | 139° |
| 2026-04-22 07:13 | 55.33523 | 45.25513 | 24535 ft | 442 kts | 139° |
| 2026-04-22 07:13 | 55.31259 | 45.29170 | 24818 ft | 443 kts | 139° |
| 2026-04-22 07:14 | 55.28984 | 45.32837 | 25089 ft | 445 kts | 139° |
| 2026-04-22 07:14 | 55.26699 | 45.36514 | 25361 ft | 447 kts | 139° |
| 2026-04-22 07:14 | 55.24404 | 45.40193 | 25633 ft | 448 kts | 139° |
| 2026-04-22 07:14 | 55.22101 | 45.43877 | 25901 ft | 449 kts | 139° |
| 2026-04-22 07:15 | 55.19789 | 45.47572 | 26147 ft | 451 kts | 139° |
| 2026-04-22 07:15 | 55.17472 | 45.51271 | 26389 ft | 452 kts | 139° |
| 2026-04-22 07:15 | 55.15141 | 45.54985 | 26631 ft | 454 kts | 139° |
| 2026-04-22 07:15 | 55.12805 | 45.58704 | 26859 ft | 455 kts | 139° |
| 2026-04-22 07:16 | 55.10458 | 45.62438 | 27077 ft | 456 kts | 139° |
| 2026-04-22 07:16 | 55.08109 | 45.66171 | 27303 ft | 458 kts | 139° |
| 2026-04-22 07:16 | 55.05749 | 45.69913 | 27506 ft | 459 kts | 140° |
| 2026-04-22 07:16 | 55.03376 | 45.73665 | 27730 ft | 460 kts | 140° |
| 2026-04-22 07:17 | 55.00998 | 45.77413 | 27937 ft | 461 kts | 140° |
| 2026-04-22 07:17 | 54.98614 | 45.81159 | 28132 ft | 462 kts | 140° |
| 2026-04-22 07:17 | 54.96224 | 45.84910 | 28313 ft | 463 kts | 140° |
| 2026-04-22 07:17 | 54.93832 | 45.88664 | 28575 ft | 462 kts | 140° |
| 2026-04-22 07:18 | 54.91446 | 45.92408 | 28822 ft | 462 kts | 140° |
| 2026-04-22 07:18 | 54.89064 | 45.96143 | 29086 ft | 461 kts | 140° |
| 2026-04-22 07:18 | 54.86682 | 45.99872 | 29350 ft | 461 kts | 140° |
| 2026-04-22 07:18 | 54.84304 | 46.03582 | 29594 ft | 460 kts | 140° |
| 2026-04-22 07:19 | 54.81925 | 46.07281 | 29874 ft | 459 kts | 140° |
| 2026-04-22 07:19 | 54.79549 | 46.10972 | 30096 ft | 458 kts | 140° |
| 2026-04-22 07:19 | 54.77149 | 46.14591 | 30292 ft | 457 kts | 142° |
| 2026-04-22 07:19 | 54.74692 | 46.18085 | 30483 ft | 457 kts | 143° |
| 2026-04-22 07:20 | 54.72198 | 46.21489 | 30658 ft | 457 kts | 144° |
| 2026-04-22 07:20 | 54.69684 | 46.24856 | 30840 ft | 457 kts | 144° |
| 2026-04-22 07:20 | 54.67168 | 46.28220 | 31017 ft | 457 kts | 144° |
| 2026-04-22 07:20 | 54.64657 | 46.31600 | 31202 ft | 457 kts | 144° |
| 2026-04-22 07:21 | 54.62159 | 46.34992 | 31387 ft | 457 kts | 143° |
| 2026-04-22 07:21 | 54.59667 | 46.38402 | 31595 ft | 457 kts | 143° |
| 2026-04-22 07:21 | 54.57183 | 46.41820 | 31778 ft | 457 kts | 143° |
| 2026-04-22 07:21 | 54.54702 | 46.45232 | 31962 ft | 457 kts | 143° |
| 2026-04-22 07:22 | 54.52213 | 46.48642 | 32139 ft | 457 kts | 143° |
| 2026-04-22 07:22 | 54.49721 | 46.52039 | 32313 ft | 457 kts | 143° |
| 2026-04-22 07:22 | 54.47223 | 46.55434 | 32483 ft | 458 kts | 143° |
| 2026-04-22 07:22 | 54.44757 | 46.58781 | 32655 ft | 458 kts | 143° |
| 2026-04-22 07:23 | 54.42272 | 46.62145 | 32825 ft | 458 kts | 143° |
| 2026-04-22 07:23 | 54.39764 | 46.65531 | 33013 ft | 458 kts | 143° |
| 2026-04-22 07:23 | 54.37264 | 46.68902 | 33193 ft | 458 kts | 143° |
| 2026-04-22 07:23 | 54.34759 | 46.72272 | 33373 ft | 458 kts | 143° |
| 2026-04-22 07:24 | 54.32253 | 46.75635 | 33547 ft | 458 kts | 143° |
| 2026-04-22 07:24 | 54.29744 | 46.79010 | 33748 ft | 458 kts | 143° |
| 2026-04-22 07:24 | 54.27299 | 46.82521 | 33884 ft | 460 kts | 137° |
| 2026-04-22 07:24 | 54.25193 | 46.86639 | 34018 ft | 462 kts | 127° |
| 2026-04-22 07:25 | 54.23507 | 46.91334 | 34149 ft | 464 kts | 117° |
| 2026-04-22 07:25 | 54.22254 | 46.96417 | 34276 ft | 466 kts | 112° |
| 2026-04-22 07:25 | 54.21084 | 47.01583 | 34431 ft | 466 kts | 112° |
| 2026-04-22 07:25 | 54.19901 | 47.06723 | 34583 ft | 466 kts | 113° |
| 2026-04-22 07:26 | 54.18703 | 47.11865 | 34741 ft | 465 kts | 113° |
| 2026-04-22 07:26 | 54.16308 | 47.22131 | 34846 ft | 466 kts | 113° |
| 2026-04-22 07:27 | 54.13912 | 47.32413 | 34846 ft | 466 kts | 113° |
| 2026-04-22 07:27 | 54.11516 | 47.42675 | 34846 ft | 466 kts | 113° |
| 2026-04-22 07:28 | 54.07908 | 47.58053 | 34846 ft | 466 kts | 113° |
| 2026-04-22 07:28 | 54.05524 | 47.68122 | 34845 ft | 466 kts | 114° |
| 2026-04-22 07:29 | 54.03089 | 47.78344 | 34851 ft | 466 kts | 114° |
| 2026-04-22 07:29 | 54.00646 | 47.88546 | 34855 ft | 466 kts | 114° |
| 2026-04-22 07:30 | 53.98203 | 47.98741 | 34850 ft | 467 kts | 114° |
| 2026-04-22 07:30 | 53.95742 | 48.08976 | 34854 ft | 467 kts | 114° |
| 2026-04-22 07:31 | 53.93280 | 48.19172 | 34856 ft | 467 kts | 114° |
| 2026-04-22 07:31 | 53.90796 | 48.29366 | 34860 ft | 467 kts | 114° |
| 2026-04-22 07:32 | 53.88301 | 48.39543 | 34862 ft | 468 kts | 114° |
| 2026-04-22 07:32 | 53.85801 | 48.49718 | 34852 ft | 468 kts | 114° |
| 2026-04-22 07:33 | 53.83314 | 48.59820 | 34854 ft | 468 kts | 115° |
| 2026-04-22 07:33 | 53.80798 | 48.69968 | 34853 ft | 468 kts | 115° |
| 2026-04-22 07:34 | 53.78265 | 48.80102 | 34851 ft | 468 kts | 115° |
| 2026-04-22 07:34 | 53.75927 | 48.90388 | 34851 ft | 469 kts | 109° |
| 2026-04-22 07:35 | 53.73945 | 49.00884 | 34837 ft | 469 kts | 110° |
| 2026-04-22 07:35 | 53.71938 | 49.11379 | 34839 ft | 469 kts | 110° |
| 2026-04-22 07:36 | 53.69930 | 49.21862 | 34840 ft | 470 kts | 110° |
| 2026-04-22 07:36 | 53.67908 | 49.32337 | 34839 ft | 470 kts | 110° |
| 2026-04-22 07:37 | 53.65873 | 49.42802 | 34841 ft | 470 kts | 110° |
| 2026-04-22 07:37 | 53.63831 | 49.53261 | 34827 ft | 470 kts | 110° |
| 2026-04-22 07:38 | 53.61788 | 49.63707 | 34819 ft | 470 kts | 111° |
| 2026-04-22 07:38 | 53.59743 | 49.74091 | 34824 ft | 470 kts | 111° |
| 2026-04-22 07:39 | 53.57670 | 49.84526 | 34831 ft | 470 kts | 111° |
| 2026-04-22 07:39 | 53.55588 | 49.94956 | 34837 ft | 471 kts | 111° |
| 2026-04-22 07:40 | 53.53444 | 50.05351 | 34838 ft | 469 kts | 117° |
| 2026-04-22 07:40 | 53.51898 | 50.10128 | 34830 ft | 463 kts | 128° |
| 2026-04-22 07:40 | 53.49867 | 50.14281 | 34833 ft | 457 kts | 139° |
| 2026-04-22 07:41 | 53.47446 | 50.17667 | 34832 ft | 452 kts | 150° |
| 2026-04-22 07:41 | 53.44820 | 50.20152 | 34833 ft | 447 kts | 160° |
| 2026-04-22 07:41 | 53.38937 | 50.23230 | 34823 ft | 443 kts | 168° |
| 2026-04-22 07:42 | 53.32991 | 50.25955 | 34819 ft | 443 kts | 168° |
| 2026-04-22 07:42 | 53.27041 | 50.28673 | 34814 ft | 443 kts | 168° |
| 2026-04-22 07:43 | 53.21090 | 50.31381 | 34831 ft | 443 kts | 168° |
| 2026-04-22 07:43 | 53.15145 | 50.34070 | 34844 ft | 443 kts | 168° |
| 2026-04-22 07:44 | 53.09203 | 50.36752 | 34847 ft | 442 kts | 168° |
| 2026-04-22 07:44 | 53.03256 | 50.39421 | 34852 ft | 442 kts | 168° |
| 2026-04-22 07:45 | 52.97313 | 50.42076 | 34844 ft | 442 kts | 168° |
| 2026-04-22 07:45 | 52.91377 | 50.44735 | 34851 ft | 442 kts | 168° |
| 2026-04-22 07:46 | 52.85440 | 50.47391 | 34861 ft | 442 kts | 168° |
| 2026-04-22 07:46 | 52.79507 | 50.50036 | 34865 ft | 442 kts | 168° |
| 2026-04-22 07:47 | 52.73572 | 50.52664 | 34846 ft | 441 kts | 169° |
| 2026-04-22 07:47 | 52.68649 | 50.54842 | 34859 ft | 441 kts | 169° |
| 2026-04-22 07:48 | 52.62726 | 50.57449 | 34875 ft | 440 kts | 169° |
| 2026-04-22 07:48 | 52.56810 | 50.60042 | 34880 ft | 440 kts | 169° |
| 2026-04-22 07:49 | 52.50889 | 50.62640 | 34881 ft | 440 kts | 169° |
| 2026-04-22 07:49 | 52.44975 | 50.65235 | 34879 ft | 440 kts | 169° |
| 2026-04-22 07:50 | 52.39059 | 50.67812 | 34891 ft | 440 kts | 169° |
| 2026-04-22 07:50 | 52.33131 | 50.70380 | 34889 ft | 440 kts | 169° |
| 2026-04-22 07:51 | 52.27211 | 50.72945 | 34891 ft | 441 kts | 169° |
| 2026-04-22 07:51 | 52.21283 | 50.75509 | 34873 ft | 440 kts | 169° |
| 2026-04-22 07:52 | 52.15358 | 50.78057 | 34887 ft | 440 kts | 169° |
| 2026-04-22 07:52 | 52.09443 | 50.80594 | 34893 ft | 440 kts | 169° |
| 2026-04-22 07:53 | 52.03519 | 50.83139 | 34898 ft | 440 kts | 169° |
| 2026-04-22 07:53 | 51.97593 | 50.85674 | 34902 ft | 440 kts | 169° |
| 2026-04-22 07:54 | 51.91672 | 50.88200 | 34892 ft | 440 kts | 169° |
| 2026-04-22 07:54 | 51.85765 | 50.90757 | 34901 ft | 439 kts | 169° |
| 2026-04-22 07:55 | 51.79865 | 50.93306 | 34902 ft | 439 kts | 169° |
| 2026-04-22 07:55 | 51.74002 | 50.95816 | 34903 ft | 438 kts | 169° |
| 2026-04-22 07:56 | 51.68141 | 50.98531 | 34892 ft | 441 kts | 162° |
| 2026-04-22 07:56 | 51.62784 | 51.03511 | 34905 ft | 447 kts | 151° |
| 2026-04-22 07:57 | 51.57599 | 51.09027 | 34913 ft | 446 kts | 152° |
| 2026-04-22 07:57 | 51.52419 | 51.14502 | 34906 ft | 445 kts | 152° |
| 2026-04-22 07:58 | 51.47239 | 51.19951 | 34890 ft | 445 kts | 152° |
| 2026-04-22 07:58 | 51.42068 | 51.25402 | 34901 ft | 444 kts | 152° |
| 2026-04-22 07:59 | 51.36934 | 51.30904 | 34904 ft | 444 kts | 151° |
| 2026-04-22 07:59 | 51.31806 | 51.36392 | 34925 ft | 443 kts | 151° |
| 2026-04-22 08:00 | 51.26677 | 51.41865 | 34910 ft | 443 kts | 151° |
| 2026-04-22 08:00 | 51.21545 | 51.47317 | 34923 ft | 443 kts | 152° |
| 2026-04-22 08:01 | 51.16421 | 51.52776 | 34928 ft | 445 kts | 148° |
| 2026-04-22 08:01 | 51.12024 | 51.59851 | 34900 ft | 454 kts | 135° |
| 2026-04-22 08:02 | 51.08010 | 51.67623 | 34875 ft | 454 kts | 135° |
| 2026-04-22 08:02 | 51.03987 | 51.75362 | 34892 ft | 454 kts | 135° |
| 2026-04-22 08:03 | 50.99961 | 51.83089 | 34900 ft | 454 kts | 135° |
| 2026-04-22 08:03 | 50.95933 | 51.90792 | 34906 ft | 453 kts | 135° |
| 2026-04-22 08:04 | 50.91904 | 51.98482 | 34907 ft | 453 kts | 135° |
| 2026-04-22 08:04 | 50.87881 | 52.06142 | 34901 ft | 452 kts | 135° |
| 2026-04-22 08:05 | 50.83848 | 52.13784 | 34910 ft | 451 kts | 136° |
| 2026-04-22 08:05 | 50.79819 | 52.21391 | 34914 ft | 451 kts | 136° |
| 2026-04-22 08:06 | 50.75796 | 52.28975 | 34920 ft | 450 kts | 136° |
| 2026-04-22 08:06 | 50.71775 | 52.36541 | 34901 ft | 449 kts | 136° |
| 2026-04-22 08:07 | 50.67753 | 52.44070 | 34917 ft | 448 kts | 136° |
| 2026-04-22 08:07 | 50.63714 | 52.51656 | 34909 ft | 455 kts | 136° |
| 2026-04-22 08:08 | 50.59631 | 52.59346 | 34910 ft | 460 kts | 136° |
| 2026-04-22 08:08 | 50.55514 | 52.67086 | 34923 ft | 462 kts | 136° |
| 2026-04-22 08:09 | 50.51366 | 52.74847 | 34914 ft | 465 kts | 136° |
| 2026-04-22 08:09 | 50.47219 | 52.82572 | 34917 ft | 467 kts | 136° |
| 2026-04-22 08:10 | 50.43024 | 52.90365 | 34915 ft | 468 kts | 136° |
| 2026-04-22 08:10 | 50.38809 | 52.98161 | 34916 ft | 469 kts | 136° |
| 2026-04-22 08:11 | 50.34592 | 53.05940 | 34922 ft | 469 kts | 136° |
| 2026-04-22 08:11 | 50.30369 | 53.13732 | 34924 ft | 469 kts | 136° |
| 2026-04-22 08:12 | 50.26134 | 53.21507 | 34928 ft | 469 kts | 136° |
| 2026-04-22 08:12 | 50.21893 | 53.29256 | 34908 ft | 469 kts | 136° |
| 2026-04-22 08:13 | 50.17651 | 53.36989 | 34923 ft | 469 kts | 136° |
| 2026-04-22 08:13 | 50.13404 | 53.44715 | 34922 ft | 469 kts | 136° |
| 2026-04-22 08:14 | 50.09158 | 53.52424 | 34928 ft | 469 kts | 136° |
| 2026-04-22 08:14 | 50.04898 | 53.60117 | 34927 ft | 468 kts | 136° |
| 2026-04-22 08:15 | 50.00638 | 53.67788 | 34933 ft | 469 kts | 136° |
| 2026-04-22 08:15 | 49.96375 | 53.75452 | 34929 ft | 469 kts | 136° |
| 2026-04-22 08:16 | 49.92113 | 53.83102 | 34938 ft | 468 kts | 136° |
| 2026-04-22 08:16 | 49.87848 | 53.90729 | 34940 ft | 468 kts | 136° |
| 2026-04-22 08:17 | 49.83569 | 53.98338 | 34932 ft | 468 kts | 136° |
| 2026-04-22 08:17 | 49.79282 | 54.05930 | 34934 ft | 468 kts | 137° |
| 2026-04-22 08:18 | 49.75001 | 54.13529 | 34934 ft | 468 kts | 136° |
| 2026-04-22 08:18 | 49.70718 | 54.21113 | 34941 ft | 468 kts | 136° |
| 2026-04-22 08:19 | 49.66412 | 54.28670 | 34933 ft | 469 kts | 136° |
| 2026-04-22 08:19 | 49.62102 | 54.36227 | 34933 ft | 469 kts | 136° |
| 2026-04-22 08:20 | 49.57790 | 54.43787 | 34935 ft | 469 kts | 136° |
| 2026-04-22 08:20 | 49.53478 | 54.51325 | 34917 ft | 469 kts | 136° |
| 2026-04-22 08:21 | 49.49156 | 54.58848 | 34925 ft | 469 kts | 136° |
| 2026-04-22 08:21 | 49.44821 | 54.66366 | 34931 ft | 469 kts | 136° |
| 2026-04-22 08:22 | 49.40488 | 54.73867 | 34935 ft | 469 kts | 136° |
| 2026-04-22 08:22 | 49.36154 | 54.81350 | 34924 ft | 469 kts | 136° |
| 2026-04-22 08:23 | 49.31841 | 54.88765 | 34933 ft | 468 kts | 137° |
| 2026-04-22 08:23 | 49.27502 | 54.96201 | 34938 ft | 468 kts | 137° |
| 2026-04-22 08:24 | 49.23166 | 55.03625 | 34936 ft | 468 kts | 137° |
| 2026-04-22 08:24 | 49.18834 | 55.11026 | 34932 ft | 466 kts | 137° |
| 2026-04-22 08:25 | 49.14500 | 55.18394 | 34938 ft | 466 kts | 137° |
| 2026-04-22 08:25 | 49.10157 | 55.25764 | 34936 ft | 466 kts | 137° |
| 2026-04-22 08:26 | 49.05812 | 55.33105 | 34912 ft | 466 kts | 137° |
| 2026-04-22 08:26 | 49.01467 | 55.40437 | 34929 ft | 465 kts | 137° |
| 2026-04-22 08:27 | 48.97132 | 55.47741 | 34931 ft | 464 kts | 137° |
| 2026-04-22 08:27 | 48.92792 | 55.55015 | 34931 ft | 464 kts | 137° |
| 2026-04-22 08:28 | 48.88453 | 55.62273 | 34917 ft | 464 kts | 137° |
| 2026-04-22 08:28 | 48.84103 | 55.69530 | 34929 ft | 464 kts | 137° |
| 2026-04-22 08:29 | 48.79745 | 55.76775 | 34924 ft | 464 kts | 137° |
| 2026-04-22 08:29 | 48.75410 | 55.83956 | 34923 ft | 464 kts | 137° |
| 2026-04-22 08:30 | 48.71017 | 55.91207 | 34927 ft | 464 kts | 137° |
| 2026-04-22 08:30 | 48.66683 | 55.98358 | 34926 ft | 464 kts | 137° |
| 2026-04-22 08:31 | 48.62311 | 56.05550 | 34922 ft | 464 kts | 137° |
| 2026-04-22 08:32 | 48.55743 | 56.16292 | 34901 ft | 464 kts | 137° |
| 2026-04-22 08:32 | 48.51362 | 56.23432 | 34906 ft | 464 kts | 137° |
| 2026-04-22 08:33 | 48.47720 | 56.29374 | 34907 ft | 464 kts | 137° |
| 2026-04-22 08:33 | 48.43335 | 56.36511 | 34913 ft | 464 kts | 137° |
| 2026-04-22 08:34 | 48.38945 | 56.43631 | 34898 ft | 464 kts | 137° |
| 2026-04-22 08:34 | 48.34546 | 56.50740 | 34903 ft | 464 kts | 137° |
| 2026-04-22 08:35 | 48.30144 | 56.57845 | 34911 ft | 465 kts | 137° |
| 2026-04-22 08:35 | 48.25736 | 56.64927 | 34915 ft | 465 kts | 138° |
| 2026-04-22 08:36 | 48.21313 | 56.72009 | 34905 ft | 465 kts | 138° |
| 2026-04-22 08:36 | 48.16898 | 56.79068 | 34913 ft | 465 kts | 138° |
| 2026-04-22 08:37 | 48.12476 | 56.86129 | 34920 ft | 464 kts | 138° |
| 2026-04-22 08:37 | 48.08046 | 56.93177 | 34918 ft | 464 kts | 138° |
| 2026-04-22 08:38 | 48.03623 | 57.00185 | 34914 ft | 463 kts | 138° |
| 2026-04-22 08:38 | 47.99201 | 57.07181 | 34902 ft | 463 kts | 138° |
| 2026-04-22 08:39 | 47.94767 | 57.14166 | 34902 ft | 463 kts | 138° |
| 2026-04-22 08:39 | 47.90334 | 57.21139 | 34910 ft | 463 kts | 138° |
| 2026-04-22 08:40 | 47.85926 | 57.28056 | 34892 ft | 463 kts | 138° |
| 2026-04-22 08:40 | 47.81458 | 57.35071 | 34896 ft | 464 kts | 138° |
| 2026-04-22 08:41 | 47.77032 | 57.41985 | 34906 ft | 464 kts | 138° |
| 2026-04-22 08:41 | 47.72568 | 57.48920 | 34909 ft | 464 kts | 138° |
| 2026-04-22 08:42 | 47.68098 | 57.55847 | 34896 ft | 464 kts | 138° |
| 2026-04-22 08:42 | 47.63626 | 57.62764 | 34900 ft | 464 kts | 139° |
| 2026-04-22 08:43 | 47.59152 | 57.69680 | 34907 ft | 465 kts | 138° |
| 2026-04-22 08:43 | 47.54676 | 57.76595 | 34894 ft | 465 kts | 139° |
| 2026-04-22 08:44 | 47.50188 | 57.83482 | 34902 ft | 465 kts | 139° |
| 2026-04-22 08:44 | 47.45729 | 57.90321 | 34908 ft | 465 kts | 139° |
| 2026-04-22 08:45 | 47.41234 | 57.97201 | 34906 ft | 465 kts | 139° |
| 2026-04-22 08:45 | 47.36730 | 58.04057 | 34892 ft | 465 kts | 139° |
| 2026-04-22 08:46 | 47.32224 | 58.10917 | 34900 ft | 466 kts | 139° |
| 2026-04-22 08:46 | 47.27886 | 58.17495 | 34905 ft | 465 kts | 139° |
| 2026-04-22 08:47 | 47.23358 | 58.24322 | 34913 ft | 465 kts | 139° |
| 2026-04-22 08:47 | 47.18843 | 58.31139 | 34889 ft | 465 kts | 140° |
| 2026-04-22 08:48 | 47.14329 | 58.37944 | 34911 ft | 464 kts | 140° |
| 2026-04-22 08:48 | 47.09822 | 58.44707 | 34915 ft | 463 kts | 140° |
| 2026-04-22 08:49 | 47.05313 | 58.51456 | 34911 ft | 462 kts | 140° |
| 2026-04-22 08:49 | 47.00808 | 58.58180 | 34905 ft | 462 kts | 140° |
| 2026-04-22 08:50 | 46.96325 | 58.64848 | 34905 ft | 462 kts | 140° |
| 2026-04-22 08:50 | 46.91812 | 58.71545 | 34904 ft | 462 kts | 140° |
| 2026-04-22 08:51 | 46.87319 | 58.78194 | 34885 ft | 462 kts | 140° |
| 2026-04-22 08:51 | 46.82801 | 58.84874 | 34888 ft | 462 kts | 140° |
| 2026-04-22 08:52 | 46.78286 | 58.91533 | 34896 ft | 461 kts | 140° |
| 2026-04-22 08:52 | 46.73769 | 58.98169 | 34864 ft | 460 kts | 140° |
| 2026-04-22 08:53 | 46.69258 | 59.04782 | 34856 ft | 460 kts | 141° |
| 2026-04-22 08:53 | 46.64794 | 59.11305 | 34865 ft | 460 kts | 141° |
| 2026-04-22 08:54 | 46.60279 | 59.17896 | 34862 ft | 460 kts | 141° |
| 2026-04-22 08:54 | 46.55762 | 59.24483 | 34838 ft | 459 kts | 141° |
| 2026-04-22 08:55 | 46.51244 | 59.31045 | 34855 ft | 459 kts | 141° |
| 2026-04-22 08:55 | 46.46715 | 59.37595 | 34848 ft | 460 kts | 141° |
| 2026-04-22 08:56 | 46.42183 | 59.44135 | 34857 ft | 460 kts | 141° |
| 2026-04-22 08:56 | 46.37645 | 59.50669 | 34836 ft | 460 kts | 141° |
| 2026-04-22 08:57 | 46.33193 | 59.57074 | 34845 ft | 459 kts | 141° |
| 2026-04-22 08:57 | 46.28633 | 59.63618 | 34845 ft | 459 kts | 142° |
| 2026-04-22 08:58 | 46.24096 | 59.70113 | 34826 ft | 459 kts | 142° |
| 2026-04-22 08:58 | 46.19508 | 59.76512 | 34846 ft | 457 kts | 144° |
| 2026-04-22 08:59 | 46.14806 | 59.82676 | 34847 ft | 456 kts | 144° |
| 2026-04-22 08:59 | 46.10093 | 59.88795 | 34844 ft | 457 kts | 144° |
| 2026-04-22 09:00 | 46.05398 | 59.94968 | 34847 ft | 456 kts | 144° |
| 2026-04-22 09:00 | 46.00725 | 60.01145 | 34852 ft | 456 kts | 144° |
| 2026-04-22 09:01 | 45.96074 | 60.07256 | 34838 ft | 456 kts | 144° |
| 2026-04-22 09:01 | 45.91383 | 60.13396 | 34836 ft | 456 kts | 144° |
| 2026-04-22 09:02 | 45.86696 | 60.19518 | 34829 ft | 456 kts | 145° |
| 2026-04-22 09:02 | 45.81996 | 60.25631 | 34831 ft | 456 kts | 145° |
| 2026-04-22 09:03 | 45.77292 | 60.31738 | 34838 ft | 456 kts | 145° |
| 2026-04-22 09:03 | 45.72581 | 60.37846 | 34827 ft | 457 kts | 145° |
| 2026-04-22 09:04 | 45.67870 | 60.43943 | 34832 ft | 456 kts | 145° |
| 2026-04-22 09:04 | 45.63167 | 60.50033 | 34830 ft | 456 kts | 145° |
| 2026-04-22 09:05 | 45.58456 | 60.56089 | 34832 ft | 456 kts | 146° |
| 2026-04-22 09:05 | 45.53744 | 60.62127 | 34828 ft | 455 kts | 146° |
| 2026-04-22 09:06 | 45.49036 | 60.68163 | 34826 ft | 456 kts | 146° |
| 2026-04-22 09:06 | 45.44322 | 60.74198 | 34824 ft | 455 kts | 146° |
| 2026-04-22 09:07 | 45.39608 | 60.80230 | 34824 ft | 455 kts | 146° |
| 2026-04-22 09:07 | 45.34921 | 60.86196 | 34822 ft | 455 kts | 146° |
| 2026-04-22 09:08 | 45.30166 | 60.92211 | 34824 ft | 455 kts | 146° |
| 2026-04-22 09:08 | 45.25467 | 60.98139 | 34797 ft | 455 kts | 146° |
| 2026-04-22 09:09 | 45.20743 | 61.04103 | 34820 ft | 454 kts | 146° |
| 2026-04-22 09:09 | 45.16022 | 61.10056 | 34821 ft | 455 kts | 146° |
| 2026-04-22 09:10 | 45.11295 | 61.16007 | 34819 ft | 454 kts | 146° |
| 2026-04-22 09:10 | 45.06580 | 61.21946 | 34815 ft | 453 kts | 146° |
| 2026-04-22 09:11 | 45.01859 | 61.27850 | 34819 ft | 453 kts | 147° |
| 2026-04-22 09:11 | 44.97131 | 61.33738 | 34814 ft | 453 kts | 147° |
| 2026-04-22 09:12 | 44.92408 | 61.39620 | 34788 ft | 453 kts | 147° |
| 2026-04-22 09:12 | 44.87694 | 61.45487 | 34811 ft | 452 kts | 147° |
| 2026-04-22 09:13 | 44.82976 | 61.51347 | 34812 ft | 452 kts | 147° |
| 2026-04-22 09:13 | 44.78258 | 61.57188 | 34811 ft | 451 kts | 147° |
| 2026-04-22 09:14 | 44.73540 | 61.63007 | 34811 ft | 451 kts | 147° |
| 2026-04-22 09:14 | 44.68826 | 61.68829 | 34812 ft | 451 kts | 147° |
| 2026-04-22 09:15 | 44.64109 | 61.74635 | 34811 ft | 451 kts | 147° |
| 2026-04-22 09:15 | 44.59387 | 61.80427 | 34789 ft | 451 kts | 147° |
| 2026-04-22 09:16 | 44.54685 | 61.86180 | 34812 ft | 450 kts | 147° |
| 2026-04-22 09:16 | 44.49965 | 61.91949 | 34822 ft | 450 kts | 147° |
| 2026-04-22 09:17 | 44.45243 | 61.97705 | 34822 ft | 450 kts | 147° |
| 2026-04-22 09:17 | 44.40528 | 62.03448 | 34809 ft | 449 kts | 148° |
| 2026-04-22 09:18 | 44.35810 | 62.09161 | 34819 ft | 448 kts | 148° |
| 2026-04-22 09:18 | 44.31103 | 62.14858 | 34803 ft | 447 kts | 148° |
| 2026-04-22 09:19 | 44.26407 | 62.20531 | 34795 ft | 446 kts | 148° |
| 2026-04-22 09:19 | 44.21713 | 62.26189 | 34803 ft | 446 kts | 148° |
| 2026-04-22 09:20 | 44.17015 | 62.31840 | 34802 ft | 446 kts | 148° |
| 2026-04-22 09:20 | 44.12324 | 62.37471 | 34779 ft | 445 kts | 148° |
| 2026-04-22 09:21 | 44.07623 | 62.43083 | 34799 ft | 445 kts | 148° |
| 2026-04-22 09:21 | 44.03709 | 62.47743 | 34799 ft | 445 kts | 148° |
| 2026-04-22 09:22 | 43.99010 | 62.53343 | 34802 ft | 445 kts | 148° |
| 2026-04-22 09:22 | 43.94309 | 62.58933 | 34807 ft | 445 kts | 148° |
| 2026-04-22 09:23 | 43.89591 | 62.64526 | 34804 ft | 446 kts | 148° |
| 2026-04-22 09:23 | 43.84871 | 62.70112 | 34804 ft | 446 kts | 148° |
| 2026-04-22 09:24 | 43.80158 | 62.75675 | 34803 ft | 446 kts | 148° |
| 2026-04-22 09:24 | 43.75425 | 62.81237 | 34802 ft | 446 kts | 148° |
| 2026-04-22 09:25 | 43.70704 | 62.86785 | 34802 ft | 446 kts | 148° |
| 2026-04-22 09:25 | 43.65979 | 62.92328 | 34801 ft | 446 kts | 148° |
| 2026-04-22 09:26 | 43.61246 | 62.97862 | 34775 ft | 446 kts | 148° |
| 2026-04-22 09:26 | 43.56508 | 63.03418 | 34806 ft | 447 kts | 148° |
| 2026-04-22 09:27 | 43.51763 | 63.08965 | 34805 ft | 447 kts | 148° |
| 2026-04-22 09:27 | 43.47044 | 63.14463 | 34806 ft | 448 kts | 148° |
| 2026-04-22 09:28 | 43.42279 | 63.20005 | 34809 ft | 448 kts | 148° |
| 2026-04-22 09:28 | 43.37508 | 63.25533 | 34811 ft | 448 kts | 148° |
| 2026-04-22 09:29 | 43.32732 | 63.31041 | 34781 ft | 448 kts | 148° |
| 2026-04-22 09:29 | 43.27959 | 63.36557 | 34791 ft | 449 kts | 148° |
| 2026-04-22 09:30 | 43.23176 | 63.42081 | 34797 ft | 450 kts | 148° |
| 2026-04-22 09:30 | 43.18384 | 63.47604 | 34777 ft | 450 kts | 148° |
| 2026-04-22 09:31 | 43.13578 | 63.53109 | 34816 ft | 451 kts | 148° |
| 2026-04-22 09:31 | 43.08763 | 63.58620 | 34813 ft | 451 kts | 148° |
| 2026-04-22 09:32 | 43.03945 | 63.64129 | 34815 ft | 451 kts | 148° |
| 2026-04-22 09:32 | 42.99125 | 63.69629 | 34795 ft | 452 kts | 148° |
| 2026-04-22 09:33 | 42.94285 | 63.75130 | 34804 ft | 453 kts | 148° |
| 2026-04-22 09:33 | 42.89437 | 63.80628 | 34821 ft | 454 kts | 148° |
| 2026-04-22 09:34 | 42.84574 | 63.86127 | 34803 ft | 454 kts | 148° |
| 2026-04-22 09:34 | 42.79708 | 63.91622 | 34828 ft | 454 kts | 148° |
| 2026-04-22 09:35 | 42.72403 | 63.99829 | 34834 ft | 454 kts | 148° |
| 2026-04-22 09:35 | 42.67560 | 64.05258 | 34819 ft | 453 kts | 148° |
| 2026-04-22 09:36 | 42.62699 | 64.10707 | 34819 ft | 453 kts | 148° |
| 2026-04-22 09:36 | 42.57826 | 64.16099 | 34819 ft | 451 kts | 150° |
| 2026-04-22 09:37 | 42.52803 | 64.21166 | 34821 ft | 449 kts | 152° |
| 2026-04-22 09:37 | 42.47408 | 64.26366 | 34823 ft | 449 kts | 152° |
| 2026-04-22 09:38 | 42.42336 | 64.31302 | 34827 ft | 450 kts | 152° |
| 2026-04-22 09:38 | 42.37280 | 64.36302 | 34818 ft | 450 kts | 152° |
| 2026-04-22 09:39 | 42.32231 | 64.41301 | 34832 ft | 450 kts | 152° |
| 2026-04-22 09:39 | 42.27183 | 64.46283 | 34836 ft | 449 kts | 152° |
| 2026-04-22 09:40 | 42.22127 | 64.51241 | 34830 ft | 449 kts | 152° |
| 2026-04-22 09:40 | 42.17077 | 64.56169 | 34824 ft | 448 kts | 152° |
| 2026-04-22 09:41 | 42.12026 | 64.61098 | 34822 ft | 448 kts | 152° |
| 2026-04-22 09:41 | 42.06986 | 64.66016 | 34824 ft | 447 kts | 152° |
| 2026-04-22 09:42 | 42.01946 | 64.70920 | 34825 ft | 447 kts | 152° |
| 2026-04-22 09:42 | 41.96905 | 64.75819 | 34827 ft | 447 kts | 152° |
| 2026-04-22 09:43 | 41.91860 | 64.80718 | 34815 ft | 447 kts | 152° |
| 2026-04-22 09:43 | 41.86813 | 64.85602 | 34828 ft | 447 kts | 152° |
| 2026-04-22 09:44 | 41.81767 | 64.90474 | 34825 ft | 447 kts | 152° |
| 2026-04-22 09:44 | 41.76723 | 64.95336 | 34819 ft | 447 kts | 152° |
| 2026-04-22 09:45 | 41.71667 | 65.00190 | 34822 ft | 447 kts | 152° |
| 2026-04-22 09:45 | 41.66600 | 65.05041 | 34825 ft | 448 kts | 152° |
| 2026-04-22 09:46 | 41.61530 | 65.09897 | 34822 ft | 448 kts | 152° |
| 2026-04-22 09:46 | 41.56487 | 65.14715 | 34840 ft | 449 kts | 152° |
| 2026-04-22 09:47 | 41.51412 | 65.19563 | 34832 ft | 449 kts | 152° |
| 2026-04-22 09:47 | 41.46329 | 65.24401 | 34823 ft | 449 kts | 152° |
| 2026-04-22 09:48 | 41.41239 | 65.29236 | 34834 ft | 449 kts | 152° |
| 2026-04-22 09:48 | 41.36143 | 65.34062 | 34825 ft | 450 kts | 153° |
| 2026-04-22 09:49 | 41.31035 | 65.38895 | 34813 ft | 451 kts | 153° |
| 2026-04-22 09:49 | 41.25914 | 65.43725 | 34836 ft | 451 kts | 153° |
| 2026-04-22 09:50 | 41.20798 | 65.48556 | 34846 ft | 451 kts | 152° |
| 2026-04-22 09:50 | 41.15681 | 65.53382 | 34853 ft | 451 kts | 153° |
| 2026-04-22 09:51 | 41.10559 | 65.58187 | 34848 ft | 451 kts | 153° |
| 2026-04-22 09:51 | 41.05438 | 65.62965 | 34833 ft | 450 kts | 153° |
| 2026-04-22 09:52 | 41.01175 | 65.66926 | 34842 ft | 450 kts | 153° |
| 2026-04-22 09:52 | 40.96047 | 65.71674 | 34844 ft | 450 kts | 153° |
| 2026-04-22 09:53 | 40.90915 | 65.76408 | 34846 ft | 449 kts | 153° |
| 2026-04-22 09:53 | 40.85798 | 65.81122 | 34852 ft | 449 kts | 153° |
| 2026-04-22 09:54 | 40.80680 | 65.85836 | 34841 ft | 448 kts | 153° |
| 2026-04-22 09:54 | 40.75571 | 65.90526 | 34852 ft | 447 kts | 153° |
| 2026-04-22 09:55 | 40.70471 | 65.95198 | 34854 ft | 445 kts | 153° |
| 2026-04-22 09:55 | 40.65387 | 65.99845 | 34859 ft | 444 kts | 153° |
| 2026-04-22 09:56 | 40.60307 | 66.04486 | 34865 ft | 444 kts | 153° |
| 2026-04-22 09:56 | 40.55230 | 66.09126 | 34862 ft | 444 kts | 153° |
| 2026-04-22 09:57 | 40.50149 | 66.13752 | 34869 ft | 444 kts | 153° |
| 2026-04-22 09:57 | 40.45119 | 66.18492 | 34864 ft | 450 kts | 147° |
| 2026-04-22 09:58 | 40.42926 | 66.21500 | 34865 ft | 462 kts | 137° |
| 2026-04-22 09:58 | 40.40903 | 66.24777 | 34865 ft | 463 kts | 138° |
| 2026-04-22 09:58 | 40.36846 | 66.31307 | 34864 ft | 461 kts | 139° |
| 2026-04-22 09:59 | 40.32781 | 66.37801 | 34837 ft | 461 kts | 138° |
| 2026-04-22 09:59 | 40.28711 | 66.44285 | 34870 ft | 461 kts | 138° |
| 2026-04-22 10:00 | 40.24646 | 66.50767 | 34870 ft | 460 kts | 138° |
| 2026-04-22 10:00 | 40.20584 | 66.57241 | 34854 ft | 460 kts | 138° |
| 2026-04-22 10:01 | 40.16515 | 66.63715 | 34853 ft | 460 kts | 139° |
| 2026-04-22 10:01 | 40.12436 | 66.70161 | 34873 ft | 461 kts | 139° |
| 2026-04-22 10:02 | 40.08357 | 66.76608 | 34861 ft | 460 kts | 139° |
| 2026-04-22 10:02 | 40.04285 | 66.83048 | 34855 ft | 460 kts | 139° |
| 2026-04-22 10:03 | 40.00211 | 66.89474 | 34841 ft | 459 kts | 139° |
| 2026-04-22 10:03 | 39.96153 | 66.95856 | 34863 ft | 461 kts | 139° |
| 2026-04-22 10:04 | 39.92054 | 67.02280 | 34865 ft | 461 kts | 139° |
| 2026-04-22 10:04 | 39.87949 | 67.08692 | 34870 ft | 461 kts | 139° |
| 2026-04-22 10:05 | 39.83847 | 67.15109 | 34872 ft | 460 kts | 140° |
| 2026-04-22 10:05 | 39.79752 | 67.21501 | 34870 ft | 460 kts | 140° |
| 2026-04-22 10:06 | 39.75628 | 67.27908 | 34864 ft | 464 kts | 139° |
| 2026-04-22 10:06 | 39.71469 | 67.34344 | 34857 ft | 466 kts | 139° |
| 2026-04-22 10:07 | 39.67311 | 67.40798 | 34861 ft | 466 kts | 139° |
| 2026-04-22 10:07 | 39.63158 | 67.47241 | 34864 ft | 465 kts | 139° |
| 2026-04-22 10:08 | 39.58996 | 67.53672 | 34869 ft | 465 kts | 139° |
| 2026-04-22 10:08 | 39.54850 | 67.60038 | 34863 ft | 461 kts | 140° |
| 2026-04-22 10:09 | 39.52863 | 67.63099 | 34507 ft | 452 kts | 140° |
| 2026-04-22 10:09 | 39.50851 | 67.66202 | 33879 ft | 449 kts | 140° |
| 2026-04-22 10:09 | 39.48847 | 67.69285 | 33074 ft | 449 kts | 139° |
| 2026-04-22 10:09 | 39.46819 | 67.72388 | 32175 ft | 451 kts | 139° |
| 2026-04-22 10:10 | 39.44781 | 67.75493 | 31262 ft | 454 kts | 138° |
| 2026-04-22 10:10 | 39.42727 | 67.78621 | 30344 ft | 458 kts | 137° |
| 2026-04-22 10:10 | 39.40657 | 67.81776 | 29352 ft | 462 kts | 137° |
| 2026-04-22 10:10 | 39.38590 | 67.84933 | 28598 ft | 458 kts | 136° |
| 2026-04-22 10:11 | 39.36536 | 67.88076 | 27804 ft | 455 kts | 136° |
| 2026-04-22 10:11 | 39.34503 | 67.91184 | 27155 ft | 450 kts | 136° |
| 2026-04-22 10:11 | 39.32490 | 67.94254 | 26488 ft | 447 kts | 136° |
| 2026-04-22 10:11 | 39.30486 | 67.97298 | 25878 ft | 442 kts | 135° |
| 2026-04-22 10:12 | 39.28501 | 68.00309 | 25294 ft | 438 kts | 135° |
| 2026-04-22 10:12 | 39.26535 | 68.03294 | 24644 ft | 435 kts | 135° |
| 2026-04-22 10:12 | 39.24590 | 68.06250 | 24102 ft | 431 kts | 135° |
| 2026-04-22 10:12 | 39.22656 | 68.09189 | 23556 ft | 427 kts | 134° |
| 2026-04-22 10:13 | 39.20733 | 68.12105 | 22939 ft | 424 kts | 135° |
| 2026-04-22 10:13 | 39.18831 | 68.14984 | 22347 ft | 420 kts | 134° |
| 2026-04-22 10:13 | 39.16941 | 68.17835 | 21777 ft | 417 kts | 135° |
| 2026-04-22 10:13 | 39.15059 | 68.20670 | 21190 ft | 415 kts | 135° |
| 2026-04-22 10:14 | 39.13188 | 68.23487 | 20648 ft | 412 kts | 135° |
| 2026-04-22 10:14 | 39.11329 | 68.26280 | 20102 ft | 410 kts | 135° |
| 2026-04-22 10:14 | 39.09483 | 68.29055 | 19648 ft | 407 kts | 134° |
| 2026-04-22 10:14 | 39.07647 | 68.31813 | 19172 ft | 405 kts | 134° |
| 2026-04-22 10:15 | 39.05826 | 68.34549 | 18704 ft | 401 kts | 134° |
| 2026-04-22 10:15 | 39.04018 | 68.37267 | 18188 ft | 399 kts | 134° |
| 2026-04-22 10:15 | 39.02220 | 68.39969 | 17687 ft | 395 kts | 134° |
| 2026-04-22 10:15 | 39.00440 | 68.42641 | 17155 ft | 392 kts | 133° |
| 2026-04-22 10:16 | 38.98736 | 68.45375 | 16750 ft | 392 kts | 124° |
| 2026-04-22 10:16 | 38.97547 | 68.48440 | 16336 ft | 389 kts | 116° |
| 2026-04-22 10:16 | 38.96436 | 68.51656 | 15931 ft | 387 kts | 116° |
| 2026-04-22 10:16 | 38.95354 | 68.54813 | 15498 ft | 382 kts | 116° |
| 2026-04-22 10:17 | 38.94313 | 68.57881 | 15064 ft | 378 kts | 116° |
| 2026-04-22 10:17 | 38.93261 | 68.60954 | 14615 ft | 373 kts | 116° |
| 2026-04-22 10:17 | 38.92209 | 68.63990 | 14169 ft | 370 kts | 116° |
| 2026-04-22 10:17 | 38.91167 | 68.66995 | 13689 ft | 367 kts | 115° |
| 2026-04-22 10:18 | 38.90131 | 68.69983 | 13255 ft | 366 kts | 116° |
| 2026-04-22 10:18 | 38.89087 | 68.72965 | 12891 ft | 364 kts | 116° |
| 2026-04-22 10:18 | 38.88046 | 68.75942 | 12522 ft | 357 kts | 115° |
| 2026-04-22 10:18 | 38.87064 | 68.78767 | 12407 ft | 345 kts | 116° |
| 2026-04-22 10:19 | 38.86105 | 68.81531 | 12255 ft | 333 kts | 115° |
| 2026-04-22 10:19 | 38.85165 | 68.84210 | 11939 ft | 327 kts | 116° |
| 2026-04-22 10:19 | 38.84241 | 68.86856 | 11611 ft | 323 kts | 117° |
| 2026-04-22 10:19 | 38.83228 | 68.89378 | 11298 ft | 314 kts | 128° |
| 2026-04-22 10:20 | 38.81820 | 68.91482 | 10980 ft | 310 kts | 134° |
| 2026-04-22 10:20 | 38.80342 | 68.93491 | 10978 ft | 307 kts | 134° |
| 2026-04-22 10:20 | 38.78912 | 68.95426 | 11189 ft | 294 kts | 134° |
| 2026-04-22 10:20 | 38.77530 | 68.97344 | 11437 ft | 292 kts | 135° |
| 2026-04-22 10:21 | 38.76177 | 68.99283 | 11683 ft | 293 kts | 134° |
| 2026-04-22 10:21 | 38.74815 | 69.01233 | 11523 ft | 295 kts | 135° |
| 2026-04-22 10:21 | 38.73461 | 69.03230 | 11111 ft | 298 kts | 135° |
| 2026-04-22 10:21 | 38.72104 | 69.05234 | 10652 ft | 297 kts | 135° |
| 2026-04-22 10:22 | 38.70743 | 69.07216 | 10248 ft | 295 kts | 135° |
| 2026-04-22 10:22 | 38.69380 | 69.09177 | 9792 ft | 296 kts | 135° |
| 2026-04-22 10:22 | 38.68005 | 69.11128 | 9456 ft | 294 kts | 135° |
| 2026-04-22 10:22 | 38.66638 | 69.13057 | 9099 ft | 292 kts | 135° |
| 2026-04-22 10:23 | 38.65273 | 69.14962 | 8739 ft | 289 kts | 135° |
| 2026-04-22 10:23 | 38.63843 | 69.16754 | 8367 ft | 285 kts | 143° |
| 2026-04-22 10:23 | 38.62276 | 69.18287 | 8043 ft | 282 kts | 146° |
| 2026-04-22 10:23 | 38.60691 | 69.19766 | 8021 ft | 283 kts | 145° |
| 2026-04-22 10:24 | 38.59083 | 69.21220 | 8007 ft | 285 kts | 146° |
| 2026-04-22 10:24 | 38.57472 | 69.22661 | 7973 ft | 286 kts | 146° |
| 2026-04-22 10:24 | 38.55834 | 69.24187 | 7989 ft | 288 kts | 146° |
| 2026-04-22 10:24 | 38.54240 | 69.25689 | 7991 ft | 288 kts | 146° |
| 2026-04-22 10:25 | 38.52612 | 69.27240 | 7995 ft | 287 kts | 145° |
| 2026-04-22 10:25 | 38.51030 | 69.28739 | 7996 ft | 288 kts | 144° |
| 2026-04-22 10:25 | 38.49737 | 69.30683 | 7976 ft | 291 kts | 117° |
| 2026-04-22 10:25 | 38.49219 | 69.33190 | 7979 ft | 296 kts | 93° |
| 2026-04-22 10:26 | 38.49509 | 69.35780 | 7973 ft | 297 kts | 69° |
| 2026-04-22 10:26 | 38.50579 | 69.38016 | 8003 ft | 295 kts | 44° |
| 2026-04-22 10:26 | 38.52247 | 69.39513 | 8267 ft | 294 kts | 21° |
| 2026-04-22 10:26 | 38.54224 | 69.40078 | 8524 ft | 292 kts | 358° |
| 2026-04-22 10:27 | 38.56199 | 69.39629 | 8772 ft | 288 kts | 334° |
| 2026-04-22 10:27 | 38.57875 | 69.38287 | 8812 ft | 282 kts | 313° |
| 2026-04-22 10:27 | 38.59002 | 69.36301 | 8399 ft | 275 kts | 291° |
| 2026-04-22 10:27 | 38.59442 | 69.33955 | 8040 ft | 270 kts | 270° |
| 2026-04-22 10:28 | 38.59212 | 69.31590 | 7681 ft | 270 kts | 251° |
| 2026-04-22 10:28 | 38.58342 | 69.29477 | 7232 ft | 271 kts | 231° |
| 2026-04-22 10:28 | 38.56916 | 69.27905 | 6992 ft | 273 kts | 210° |
| 2026-04-22 10:28 | 38.55349 | 69.26682 | 6982 ft | 256 kts | 223° |
| 2026-04-22 10:29 | 38.54388 | 69.24899 | 6984 ft | 241 kts | 252° |
| 2026-04-22 10:29 | 38.54176 | 69.22801 | 6994 ft | 238 kts | 270° |
| 2026-04-22 10:29 | 38.54197 | 69.20687 | 6991 ft | 238 kts | 271° |
| 2026-04-22 10:29 | 38.54218 | 69.18568 | 7001 ft | 238 kts | 270° |
| 2026-04-22 10:30 | 38.54231 | 69.16474 | 6996 ft | 235 kts | 270° |
| 2026-04-22 10:30 | 38.54242 | 69.14390 | 6971 ft | 235 kts | 270° |
| 2026-04-22 10:30 | 38.54253 | 69.12295 | 6755 ft | 236 kts | 270° |
| 2026-04-22 10:30 | 38.54264 | 69.10194 | 6482 ft | 237 kts | 270° |
| 2026-04-22 10:31 | 38.54274 | 69.08079 | 6188 ft | 239 kts | 270° |
| 2026-04-22 10:31 | 38.54284 | 69.05959 | 5872 ft | 239 kts | 270° |
| 2026-04-22 10:31 | 38.54294 | 69.03835 | 5564 ft | 239 kts | 270° |
| 2026-04-22 10:31 | 38.54303 | 69.01718 | 5252 ft | 238 kts | 270° |
| 2026-04-22 10:32 | 38.54312 | 68.99605 | 4949 ft | 238 kts | 270° |
| 2026-04-22 10:32 | 38.54321 | 68.97501 | 4642 ft | 233 kts | 270° |
| 2026-04-22 10:32 | 38.54328 | 68.95499 | 4373 ft | 217 kts | 270° |
| 2026-04-22 10:32 | 38.54335 | 68.93631 | 4061 ft | 204 kts | 270° |
| 2026-04-22 10:33 | 38.54341 | 68.91885 | 3783 ft | 191 kts | 270° |
| 2026-04-22 10:33 | 38.54347 | 68.90280 | 3571 ft | 172 kts | 269° |
| 2026-04-22 10:33 | 38.54352 | 68.88808 | 3345 ft | 161 kts | 270° |
| 2026-04-22 10:33 | 38.54356 | 68.87405 | 3143 ft | 157 kts | 269° |
| 2026-04-22 10:34 | 38.54366 | 68.86022 | 2912 ft | 156 kts | 268° |
| 2026-04-22 10:34 | 38.54376 | 68.84648 | 2665 ft | 153 kts | 268° |
| 2026-04-22 10:34 | 38.54363 | 68.83302 | 2578 ft | 148 kts | 269° |
| 2026-04-22 10:34 | 38.54368 | 68.82218 | 2577 ft | 84 kts | 270° |
| 2026-04-22 10:35 | 38.54365 | 68.81748 | 2587 ft | 35 kts | 269° |
| 2026-04-22 10:35 | 38.54381 | 68.81559 | 2587 ft | 13 kts | 312° |
| 2026-04-22 10:35 | 38.54445 | 68.81551 | 2588 ft | 8 kts | 356° |
| 2026-04-22 10:35 | 38.54496 | 68.81547 | 2590 ft | 7 kts | 357° |
| 2026-04-22 10:36 | 38.54547 | 68.81546 | 2587 ft | 10 kts | 360° |
| 2026-04-22 10:36 | 38.54634 | 68.81550 | 2585 ft | 15 kts | 2° |
| 2026-04-22 10:36 | 38.54694 | 68.81627 | 2590 ft | 16 kts | 92° |
| 2026-04-22 10:36 | 38.54693 | 68.81727 | 2589 ft | 0 kts | 90° |
| 2026-04-22 10:38 | 38.54708 | 68.81770 | 2583 ft | 10 kts | 31° |
| 2026-04-22 10:38 | 38.54737 | 68.81789 | 2588 ft | 0 kts | 37° |
| 2026-04-22 10:38 | 38.54738 | 68.81808 | 2581 ft | 7 kts | 80° |
| 2026-04-22 10:39 | 38.54741 | 68.81852 | 2587 ft | 0 kts | 89° |